createdAt,value
2018-08-28T00:01:50.025Z,7.08
2018-08-28T00:05:14.418Z,7.05
2018-08-28T00:08:38.821Z,7.17
2018-08-28T00:12:03.273Z,7.12
2018-08-28T00:15:27.650Z,7.03
2018-08-28T00:18:52.195Z,7.87
2018-08-28T00:22:16.573Z,7.47
2018-08-28T00:25:41.085Z,7.62
2018-08-28T00:29:05.496Z,8.00
2018-08-28T00:32:29.902Z,7.20
2018-08-28T00:35:54.270Z,7.62
2018-08-28T00:39:18.645Z,9.95
2018-08-28T00:42:43.038Z,8.40
2018-08-28T00:46:07.457Z,7.95
2018-08-28T00:49:31.846Z,9.03
2018-08-28T00:52:56.261Z,7.35
2018-08-28T00:56:20.656Z,7.55
2018-08-28T00:59:45.039Z,8.55
2018-08-28T01:03:09.468Z,8.63
2018-08-28T01:06:33.870Z,8.93
2018-08-28T01:09:58.233Z,8.73
2018-08-28T01:13:22.633Z,8.88
2018-08-28T01:16:47.044Z,7.67
2018-08-28T01:20:11.510Z,8.33
2018-08-28T01:23:35.887Z,8.53
2018-08-28T01:27:00.265Z,8.18
2018-08-28T01:30:29.996Z,7.75
2018-08-28T01:33:54.393Z,7.78
2018-08-28T01:37:18.764Z,8.85
2018-08-28T01:40:43.145Z,7.87
2018-08-28T01:44:07.526Z,8.55
2018-08-28T01:47:31.916Z,9.03
2018-08-28T01:50:56.460Z,8.15
2018-08-28T01:54:20.829Z,8.63
2018-08-28T01:57:45.224Z,8.50
2018-08-28T02:01:09.695Z,7.62
2018-08-28T02:04:34.089Z,8.98
2018-08-28T02:07:58.481Z,8.48
2018-08-28T02:11:22.874Z,8.38
2018-08-28T02:14:47.265Z,7.92
2018-08-28T02:18:17.817Z,9.08
2018-08-28T02:21:42.188Z,8.75
2018-08-28T02:25:08.087Z,9.28
2018-08-28T02:28:32.489Z,9.55
2018-08-28T02:31:56.964Z,8.15
2018-08-28T02:35:21.402Z,8.30
2018-08-28T02:38:45.877Z,7.72
2018-08-28T02:42:10.281Z,9.18
2018-08-28T02:45:34.724Z,8.83
2018-08-28T02:48:59.157Z,8.25
2018-08-28T02:52:23.594Z,9.10
2018-08-28T02:55:47.993Z,7.90
2018-08-28T02:59:12.717Z,8.63
2018-08-28T03:02:37.154Z,8.15
2018-08-28T03:06:01.610Z,8.68
2018-08-28T03:09:26.018Z,8.55
2018-08-28T03:12:50.430Z,8.78
2018-08-28T03:16:14.853Z,8.93
2018-08-28T03:19:39.285Z,9.60
2018-08-28T03:23:03.677Z,9.53
2018-08-28T03:26:28.101Z,8.40
2018-08-28T03:29:52.542Z,10.38
2018-08-28T03:33:16.924Z,9.78
2018-08-28T03:36:41.348Z,9.25
2018-08-28T03:40:06.545Z,8.50
2018-08-28T03:43:30.980Z,8.38
2018-08-28T03:46:55.417Z,8.85
2018-08-28T03:50:19.958Z,9.15
2018-08-28T03:53:44.332Z,10.90
2018-08-28T03:57:08.789Z,9.93
2018-08-28T04:00:33.184Z,9.95
2018-08-28T04:03:57.639Z,9.15
2018-08-28T04:07:22.054Z,9.80
2018-08-28T04:10:46.485Z,9.55
2018-08-28T04:14:10.927Z,10.75
2018-08-28T04:17:47.603Z,11.18
2018-08-28T04:21:12.029Z,9.15
2018-08-28T04:24:36.444Z,9.73
2018-08-28T04:28:00.925Z,9.30
2018-08-28T04:31:25.563Z,9.80
2018-08-28T04:34:50.109Z,10.53
2018-08-28T04:38:14.654Z,9.28
2018-08-28T04:41:39.113Z,9.10
2018-08-28T04:45:03.618Z,10.95
2018-08-28T04:48:29.443Z,9.68
2018-08-28T04:51:53.893Z,9.20
2018-08-28T04:55:18.295Z,9.25
2018-08-28T04:58:42.684Z,9.85
2018-08-28T05:02:07.243Z,10.75
2018-08-28T05:05:31.681Z,10.58
2018-08-28T05:08:56.266Z,10.32
2018-08-28T05:12:23.078Z,10.63
2018-08-28T05:15:47.552Z,10.03
2018-08-28T05:19:12.001Z,8.98
2018-08-28T05:22:36.484Z,10.45
2018-08-28T05:26:01.149Z,8.55
2018-08-28T05:29:25.604Z,9.55
2018-08-28T05:32:49.990Z,9.75
2018-08-28T05:36:14.438Z,9.68
2018-08-28T05:39:38.931Z,10.60
2018-08-28T05:43:03.516Z,10.13
2018-08-28T05:46:28.121Z,10.20
2018-08-28T05:49:52.595Z,10.30
2018-08-28T05:53:17.119Z,10.88
2018-08-28T05:56:41.551Z,10.28
2018-08-28T06:00:06.823Z,10.95
2018-08-28T06:03:31.368Z,12.63
2018-08-28T06:06:55.773Z,10.63
2018-08-28T06:10:20.291Z,11.75
2018-08-28T06:13:44.773Z,11.40
2018-08-28T06:17:09.388Z,11.45
2018-08-28T06:20:33.849Z,10.75
2018-08-28T06:23:58.292Z,10.25
2018-08-28T06:27:22.724Z,10.03
2018-08-28T06:30:47.186Z,9.25
2018-08-28T06:34:11.700Z,10.55
2018-08-28T06:37:36.130Z,9.90
2018-08-28T06:41:00.588Z,9.35
2018-08-28T06:44:25.075Z,10.58
2018-08-28T06:47:49.529Z,9.98
2018-08-28T06:51:13.968Z,9.25
2018-08-28T06:54:38.416Z,10.15
2018-08-28T06:58:02.826Z,8.95
2018-08-28T07:01:27.218Z,8.75
2018-08-28T07:04:51.667Z,8.28
2018-08-28T07:08:16.083Z,8.98
2018-08-28T07:11:40.537Z,9.63
2018-08-28T07:15:05.021Z,9.68
2018-08-28T07:18:29.433Z,8.78
2018-08-28T07:21:53.897Z,10.20
2018-08-28T07:25:18.382Z,8.73
2018-08-28T07:28:42.852Z,10.10
2018-08-28T07:32:07.389Z,9.03
2018-08-28T07:35:31.804Z,8.03
2018-08-28T07:38:56.245Z,8.75
2018-08-28T07:42:20.706Z,7.20
2018-08-28T07:45:45.123Z,9.03
2018-08-28T07:49:09.677Z,8.05
2018-08-28T07:52:34.187Z,9.38
2018-08-28T07:55:58.612Z,8.03
2018-08-28T07:59:23.027Z,8.00
2018-08-28T08:02:47.468Z,8.38
2018-08-28T08:06:11.865Z,8.40
2018-08-28T08:09:36.301Z,8.35
2018-08-28T08:13:00.764Z,9.00
2018-08-28T08:16:25.196Z,8.15
2018-08-28T08:19:49.625Z,8.18
2018-08-28T08:23:14.093Z,6.95
2018-08-28T08:26:38.567Z,8.23
2018-08-28T08:30:03.061Z,7.15
2018-08-28T08:33:27.492Z,7.70
2018-08-28T08:36:51.979Z,7.65
2018-08-28T08:40:16.418Z,8.13
2018-08-28T08:43:40.846Z,8.00
2018-08-28T08:47:05.286Z,7.08
2018-08-28T08:50:29.700Z,7.42
2018-08-28T08:53:54.138Z,8.23
2018-08-28T08:57:18.723Z,8.48
2018-08-28T09:00:43.141Z,6.53
2018-08-28T09:04:07.893Z,7.62
2018-08-28T09:07:32.809Z,7.35
2018-08-28T09:10:57.327Z,8.15
2018-08-28T09:14:21.803Z,7.62
2018-08-28T09:17:46.228Z,9.00
2018-08-28T09:21:10.644Z,6.95
2018-08-28T09:24:35.092Z,8.78
2018-08-28T09:27:59.503Z,7.15
2018-08-28T09:31:24.045Z,9.83
2018-08-28T09:34:48.478Z,8.65
2018-08-28T09:38:12.911Z,9.63
2018-08-28T09:41:37.750Z,9.58
2018-08-28T09:45:02.194Z,9.48
2018-08-28T09:48:26.736Z,9.45
2018-08-28T09:51:51.085Z,7.90
2018-08-28T09:55:15.571Z,7.95
2018-08-28T09:58:40.446Z,7.72
2018-08-28T10:02:04.895Z,7.85
2018-08-28T10:05:29.344Z,8.58
2018-08-28T10:08:53.823Z,8.40
2018-08-28T10:12:18.231Z,7.37
2018-08-28T10:15:42.653Z,7.75
2018-08-28T10:19:07.448Z,7.80
2018-08-28T10:22:31.922Z,7.50
2018-08-28T10:25:56.387Z,7.25
2018-08-28T10:29:20.846Z,6.87
2018-08-28T10:32:45.244Z,8.13
2018-08-28T10:36:09.644Z,7.97
2018-08-28T10:39:34.141Z,7.92
2018-08-28T10:42:58.587Z,6.47
2018-08-28T10:46:23.109Z,8.08
2018-08-28T10:49:47.618Z,7.15
2018-08-28T10:53:12.059Z,7.87
2018-08-28T10:56:36.560Z,7.67
2018-08-28T11:00:00.981Z,9.23
2018-08-28T11:03:25.424Z,7.92
2018-08-28T11:06:49.860Z,7.25
2018-08-28T11:10:14.293Z,6.97
2018-08-28T11:13:38.741Z,8.25
2018-08-28T11:17:03.545Z,6.67
2018-08-28T11:20:28.050Z,7.35
2018-08-28T11:23:52.541Z,8.43
2018-08-28T11:27:17.132Z,8.13
2018-08-28T11:30:41.672Z,7.90
2018-08-28T11:34:06.119Z,10.35
2018-08-28T11:37:30.574Z,8.70
2018-08-28T11:40:54.996Z,8.18
2018-08-28T11:44:19.445Z,9.05
2018-08-28T11:47:43.864Z,8.13
2018-08-28T11:51:08.321Z,9.58
2018-08-28T11:54:32.811Z,8.25
2018-08-28T11:57:57.306Z,8.23
2018-08-28T12:01:21.768Z,7.45
2018-08-28T12:04:46.285Z,8.10
2018-08-28T12:08:10.694Z,7.97
2018-08-28T12:11:35.093Z,8.58
2018-08-28T12:14:59.556Z,8.75
2018-08-28T12:18:23.953Z,9.35
2018-08-28T12:21:49.867Z,9.60
2018-08-28T12:25:14.316Z,9.70
2018-08-28T12:28:38.718Z,9.70
2018-08-28T12:32:03.184Z,9.63
2018-08-28T12:35:27.609Z,9.78
2018-08-28T12:38:52.024Z,8.73
2018-08-28T12:42:16.537Z,10.40
2018-08-28T12:45:40.974Z,10.08
2018-08-28T12:49:05.496Z,10.13
2018-08-28T12:52:30.109Z,9.73
2018-08-28T12:55:54.568Z,11.38
2018-08-28T12:59:18.990Z,11.20
2018-08-28T13:02:43.468Z,9.88
2018-08-28T13:06:08.004Z,10.15
2018-08-28T13:09:32.434Z,9.73
2018-08-28T13:12:56.856Z,8.93
2018-08-28T13:16:21.281Z,9.88
2018-08-28T13:19:45.701Z,10.18
2018-08-28T13:23:10.138Z,9.35
2018-08-28T13:26:34.617Z,9.28
2018-08-28T13:29:59.066Z,9.25
2018-08-28T13:33:23.530Z,10.30
2018-08-28T13:36:47.951Z,10.85
2018-08-28T13:40:12.575Z,9.33
2018-08-28T13:43:36.908Z,11.33
2018-08-28T13:47:01.452Z,12.05
2018-08-28T13:50:25.852Z,9.75
2018-08-28T13:53:50.334Z,10.25
2018-08-28T13:57:14.726Z,9.05
2018-08-28T14:00:39.197Z,10.13
2018-08-28T14:04:03.729Z,10.23
2018-08-28T14:07:31.371Z,9.68
2018-08-28T14:10:55.849Z,9.00
2018-08-28T14:14:20.316Z,10.28
2018-08-28T14:17:44.769Z,9.88
2018-08-28T14:21:09.197Z,10.40
2018-08-28T14:24:33.633Z,8.85
2018-08-28T14:27:58.034Z,10.03
2018-08-28T14:31:22.444Z,10.82
2018-08-28T14:34:46.902Z,9.90
2018-08-28T14:38:11.343Z,10.25
2018-08-28T14:41:35.850Z,10.03
2018-08-28T14:45:07.710Z,10.28
2018-08-28T14:48:32.159Z,8.53
2018-08-28T14:51:56.644Z,10.25
2018-08-28T14:55:21.064Z,11.57
2018-08-28T14:58:45.496Z,10.88
2018-08-28T15:02:09.947Z,9.43
2018-08-28T15:05:34.367Z,9.38
2018-08-28T15:08:58.750Z,11.00
2018-08-28T15:12:23.187Z,10.13
2018-08-28T15:15:47.995Z,9.55
2018-08-28T15:19:13.456Z,9.23
2018-08-28T15:22:38.292Z,9.95
2018-08-28T15:26:03.073Z,9.30
2018-08-28T15:29:27.864Z,8.15
2018-08-28T15:32:52.534Z,8.68
2018-08-28T15:36:17.138Z,8.78
2018-08-28T15:39:41.590Z,9.13
2018-08-28T15:43:06.250Z,8.95
2018-08-28T15:46:30.583Z,9.38
2018-08-28T15:49:55.016Z,9.38
2018-08-28T15:53:19.444Z,9.68
2018-08-28T15:56:43.870Z,9.73
2018-08-28T16:00:08.286Z,10.55
2018-08-28T16:03:32.702Z,8.93
2018-08-28T16:06:57.144Z,9.23
2018-08-28T16:10:21.631Z,8.85
2018-08-28T16:13:46.032Z,8.23
2018-08-28T16:17:10.456Z,9.08
2018-08-28T16:20:34.937Z,8.80
2018-08-28T16:23:59.336Z,9.88
2018-08-28T16:27:23.805Z,8.75
2018-08-28T16:30:48.288Z,9.50
2018-08-28T16:34:12.715Z,8.70
2018-08-28T16:37:37.322Z,8.68
2018-08-28T16:41:01.759Z,8.15
2018-08-28T16:44:26.206Z,8.18
2018-08-28T16:47:50.610Z,8.60
2018-08-28T16:51:15.104Z,8.93
2018-08-28T16:54:39.578Z,8.88
2018-08-28T16:58:03.980Z,9.80
2018-08-28T17:01:28.485Z,9.05
2018-08-28T17:04:52.904Z,9.53
2018-08-28T17:08:17.328Z,8.53
2018-08-28T17:11:41.834Z,8.45
2018-08-28T17:15:06.396Z,7.12
2018-08-28T17:18:31.044Z,8.00
2018-08-28T17:21:55.501Z,6.15
2018-08-28T17:25:19.968Z,8.30
2018-08-28T17:28:44.397Z,7.03
2018-08-28T17:32:08.826Z,8.38
2018-08-28T17:35:33.240Z,8.78
2018-08-28T17:38:57.639Z,7.78
2018-08-28T17:42:22.212Z,7.72
2018-08-28T17:45:46.658Z,7.03
2018-08-28T17:49:11.169Z,8.55
2018-08-28T17:52:35.755Z,9.13
2018-08-28T17:56:00.197Z,8.18
2018-08-28T17:59:24.638Z,7.75
2018-08-28T18:02:49.131Z,7.95
2018-08-28T18:06:13.553Z,7.92
2018-08-28T18:09:38.047Z,8.25
2018-08-28T18:13:02.567Z,7.75
2018-08-28T18:16:27.103Z,8.43
2018-08-28T18:19:51.494Z,7.75
2018-08-28T18:23:15.920Z,9.25
2018-08-28T18:26:40.321Z,8.90
2018-08-28T18:30:04.748Z,7.92
2018-08-28T18:33:29.305Z,8.58
2018-08-28T18:36:53.747Z,8.50
2018-08-28T18:40:18.185Z,8.68
2018-08-28T18:43:42.648Z,10.05
2018-08-28T18:47:07.177Z,10.63
2018-08-28T18:50:31.622Z,9.70
2018-08-28T18:53:56.961Z,9.60
2018-08-28T18:57:21.527Z,10.38
2018-08-28T19:00:45.988Z,10.03
2018-08-28T19:04:10.532Z,10.13
2018-08-28T19:07:35.045Z,9.75
2018-08-28T19:10:59.564Z,10.15
2018-08-28T19:14:24.106Z,10.08
2018-08-28T19:17:48.581Z,11.48
2018-08-28T19:21:12.971Z,11.40
2018-08-28T19:24:37.663Z,10.45
2018-08-28T19:28:02.107Z,11.12
2018-08-28T19:31:26.590Z,10.08
2018-08-28T19:34:52.116Z,11.65
2018-08-28T19:38:17.249Z,13.00
2018-08-28T19:41:43.684Z,11.22
2018-08-28T19:45:08.773Z,11.33
2018-08-28T19:48:33.800Z,11.63
2018-08-28T19:51:58.252Z,11.12
2018-08-28T19:55:23.513Z,11.88
2018-08-28T19:58:48.315Z,11.70
2018-08-28T20:02:13.033Z,11.38
2018-08-28T20:05:37.986Z,10.93
2018-08-28T20:09:04.181Z,11.95
2018-08-28T20:12:28.585Z,11.73
2018-08-28T20:15:53.062Z,11.40
2018-08-28T20:19:17.511Z,12.40
2018-08-28T20:22:41.911Z,13.22
2018-08-28T20:26:06.751Z,11.90
2018-08-28T20:29:31.140Z,12.13
2018-08-28T20:32:55.540Z,11.83
2018-08-28T20:36:19.993Z,14.13
2018-08-28T20:39:44.392Z,12.82
2018-08-28T20:43:08.845Z,11.25
2018-08-28T20:46:33.315Z,11.57
2018-08-28T20:49:57.833Z,11.40
2018-08-28T20:53:22.257Z,11.68
2018-08-28T20:56:46.707Z,10.60
2018-08-28T21:00:11.130Z,9.05
2018-08-28T21:03:35.520Z,8.78
2018-08-28T21:07:00.078Z,9.28
2018-08-28T21:10:24.461Z,8.30
2018-08-28T21:13:48.874Z,8.20
2018-08-28T21:17:13.267Z,9.03
2018-08-28T21:20:37.681Z,8.23
2018-08-28T21:24:02.057Z,9.23
2018-08-28T21:27:26.592Z,8.08
2018-08-28T21:30:51.205Z,8.38
2018-08-28T21:34:15.628Z,7.80
2018-08-28T21:37:40.105Z,7.28
2018-08-28T21:41:04.599Z,8.85
2018-08-28T21:44:29.039Z,8.55
2018-08-28T21:47:53.552Z,7.95
2018-08-28T21:51:17.995Z,7.72
2018-08-28T21:54:42.455Z,8.00
2018-08-28T21:58:06.934Z,7.97
2018-08-28T22:01:31.384Z,7.72
2018-08-28T22:04:55.805Z,7.15
2018-08-28T22:08:20.275Z,8.35
2018-08-28T22:11:44.730Z,7.12
2018-08-28T22:15:13.924Z,7.10
2018-08-28T22:18:38.347Z,7.70
2018-08-28T22:22:02.824Z,8.05
2018-08-28T22:25:27.241Z,8.15
2018-08-28T22:28:51.682Z,8.38
2018-08-28T22:32:16.171Z,8.73
2018-08-28T22:35:40.595Z,8.28
2018-08-28T22:39:05.959Z,8.60
2018-08-28T22:42:30.467Z,8.33
2018-08-28T22:45:54.883Z,9.10
2018-08-28T22:49:19.299Z,8.53
2018-08-28T22:52:43.728Z,8.53
2018-08-28T22:56:08.227Z,8.33
2018-08-28T22:59:32.654Z,8.08
2018-08-28T23:02:57.083Z,8.95
2018-08-28T23:06:21.516Z,9.60
2018-08-28T23:09:45.976Z,8.98
2018-08-28T23:13:10.429Z,8.10
2018-08-28T23:16:34.903Z,9.53
2018-08-28T23:19:59.289Z,9.90
2018-08-28T23:23:23.725Z,9.73
2018-08-28T23:26:48.191Z,9.65
2018-08-28T23:30:12.587Z,9.45
2018-08-28T23:33:37.019Z,9.30
2018-08-28T23:37:01.465Z,9.13
2018-08-28T23:40:25.916Z,9.90
2018-08-28T23:43:50.339Z,8.93
2018-08-28T23:47:14.779Z,8.93
2018-08-28T23:50:39.271Z,9.60
2018-08-28T23:54:03.774Z,10.18
2018-08-28T23:57:28.203Z,8.98
